Azure — ZCEE2 — position and weather

sailwx.info

Track history (hours):
 
Tides and Currents Weather Stations Pressure Air Temp Water Temp Dewpoint Dewpoint Depression Visibility Wind Speed Wind Dir Waves Ship Positions

Azure

Last reported at 2017-Jul-28 06:00 UTC. Time now 2017-Jul-28 08:37 UTC.
Position N 56°12' E 003°36'.

Length 289 m; draft 8.6 m.

Type: Passenger vessel. MMSI: 310610000.

Wind from 190 at 8 knots

Barometer 1000.2 mb
Air temperature 15.5 ° C
Visibility: greater than 10.8 NM
Dewpoint 10.8 ° C
Water temperature 16.0 ° C

Date/timePositionNaut miles runAvg speedWind from/ knotsBaromVisibWave heightAir tempDewpointWater temp
2017-Jul-28 06:00N 56°12' E 003°36'8421.1 190 / 81000.210.8 15.510.816.0
2017-Jul-28 02:00N 57°36' E 003°48'18120.6 200 / 111000.310.8 14.610.616.0
2017-Jul-27 17:13N 60°36' E 004°22'420.7
2017-Jul-27 17:00N 60°40' E 004°28'917.4
2017-Jul-27 16:30N 60°44' E 004°42'712.9
2017-Jul-27 16:00N 60°40' E 004°51'1019.4
2017-Jul-27 15:30N 60°31' E 004°58'816.1
2017-Jul-27 15:00N 60°24' E 005°07'6 5.6
2017-Jul-27 14:00N 60°24' E 005°19'0 0.0
2017-Jul-27 13:30N 60°24' E 005°19'0 0.0
2017-Jul-27 13:00N 60°24' E 005°19'0 0.0
2017-Jul-27 12:30N 60°24' E 005°19'0 0.0
2017-Jul-27 12:00N 60°24' E 005°19'0 0.0
2017-Jul-27 11:18N 60°24' E 005°19'0 0.0
2017-Jul-27 11:00N 60°24' E 005°19'0 0.0
2017-Jul-27 10:30N 60°24' E 005°19'0 0.0
2017-Jul-27 10:00N 60°24' E 005°19'0 0.0
2017-Jul-27 09:30N 60°24' E 005°19'0 0.0
2017-Jul-27 09:00N 60°24' E 005°19'0 0.0
2017-Jul-27 08:30N 60°24' E 005°19'0 0.0
2017-Jul-27 08:00N 60°24' E 005°19'0 0.0
2017-Jul-27 07:24N 60°24' E 005°19'0 0.0
2017-Jul-27 07:00N 60°24' E 005°19'0 0.0
2017-Jul-27 06:30N 60°24' E 005°19'0 0.0
2017-Jul-27 06:00N 60°24' E 005°19'0 0.0
2017-Jul-27 05:30N 60°24' E 005°19'0 0.0
2017-Jul-27 05:00N 60°24' E 005°19'0 0.3
2017-Jul-27 04:30N 60°24' E 005°19'3 6.4
2017-Jul-27 04:00N 60°24' E 005°13'510.5
2017-Jul-27 03:30N 60°25' E 005°03'714.3
2017-Jul-27 03:00N 60°32' E 004°56'714.5
2017-Jul-27 02:30N 60°39' E 004°51'612.3
2017-Jul-27 01:59N 60°44' E 004°44'714.4
2017-Jul-27 01:30N 60°47' E 004°31'713.4
2017-Jul-27 01:00N 60°52' E 004°23'714.1
2017-Jul-27 00:31N 60°58' E 004°16'4713.5
2017-Jul-26 21:02N 61°45' E 004°23'116.5
2017-Jul-26 21:00N 61°45' E 004°24'816.5
2017-Jul-26 20:30N 61°52' E 004°33'815.8
2017-Jul-26 20:00N 61°58' E 004°45'815.2
2017-Jul-26 19:30N 61°56' E 004°60'714.6
2017-Jul-26 19:00N 61°54' E 005°15'816.4
2017-Jul-26 18:30N 61°55' E 005°32'7 0.4
2017-Jul-26 03:08N 61°52' E 005°45'213.2
2017-Jul-26 02:59N 61°53' E 005°43'714.3
2017-Jul-26 02:30N 61°55' E 005°28'714.3
2017-Jul-26 02:00N 61°54' E 005°13'713.1
2017-Jul-26 01:29N 61°56' E 004°60'713.6
2017-Jul-26 01:00N 61°58' E 004°47'816.9
2017-Jul-26 00:30N 61°56' E 004°29'3715.4
2017-Jul-25 22:05N 61°19' E 004°18'332.0
2017-Jul-25 22:00N 61°17' E 004°22'815.3
2017-Jul-25 21:29N 61°14' E 004°37'918.5
2017-Jul-25 21:00N 61°13' E 004°56'714.0
2017-Jul-25 20:30N 61°09' E 005°07'917.4
2017-Jul-25 20:00N 61°04' E 005°22'816.6
2017-Jul-25 19:29N 61°07' E 005°38'917.9
2017-Jul-25 18:59N 61°08' E 005°56'918.2
2017-Jul-25 18:30N 61°07' E 006°14'917.2
2017-Jul-25 18:00N 61°07' E 006°32'713.7
2017-Jul-25 17:30N 61°10' E 006°45'816.6
2017-Jul-25 17:00N 61°05' E 006°59'816.2
2017-Jul-25 16:30N 60°58' E 007°06'510.0
2017-Jul-25 16:00N 60°53' E 007°09'2 3.1
2017-Jul-25 15:30N 60°52' E 007°07'0 0.0
2017-Jul-25 14:58N 60°52' E 007°07'0 0.0
2017-Jul-25 13:58N 60°52' E 007°07'0 0.0
2017-Jul-25 13:28N 60°52' E 007°07'0 0.0
2017-Jul-25 12:58N 60°52' E 007°07'0 0.0
2017-Jul-25 12:28N 60°52' E 007°07'0 0.0
2017-Jul-25 11:58N 60°52' E 007°07'0 0.0
2017-Jul-25 11:29N 60°52' E 007°07'0 0.0
2017-Jul-25 10:59N 60°52' E 007°07'0 0.0
2017-Jul-25 10:29N 60°52' E 007°07'0 0.0
2017-Jul-25 09:59N 60°52' E 007°07'0 0.0
2017-Jul-25 09:29N 60°52' E 007°07'0 0.0
2017-Jul-25 08:59N 60°52' E 007°07'0 0.0
2017-Jul-25 08:28N 60°52' E 007°07'0 0.0
2017-Jul-25 07:58N 60°52' E 007°07'0 0.0
2017-Jul-25 07:28N 60°52' E 007°07'0 0.0
2017-Jul-25 06:58N 60°52' E 007°07'0 0.0
2017-Jul-25 06:28N 60°52' E 007°07'0 0.0
2017-Jul-25 05:58N 60°52' E 007°07'1 1.3
2017-Jul-25 05:29N 60°52' E 007°08'5 9.1
2017-Jul-25 05:00N 60°57' E 007°09'713.4
2017-Jul-25 04:30N 61°03' E 007°02'713.4
2017-Jul-25 04:00N 61°08' E 006°54'713.5
2017-Jul-25 03:30N 61°11' E 006°41'713.3
2017-Jul-25 03:00N 61°07' E 006°30'714.8
2017-Jul-25 02:30N 61°07' E 006°15'815.4
2017-Jul-25 02:00N 61°08' E 005°59'815.8
2017-Jul-25 01:30N 61°07' E 005°43'816.1
2017-Jul-25 01:00N 61°04' E 005°28'714.3
2017-Jul-25 00:30N 61°06' E 005°13'713.3
2017-Jul-25 00:00N 61°04' E 004°60'815.2
2017-Jul-24 23:30N 60°59' E 004°47'714.5
2017-Jul-24 23:00N 60°53' E 004°41'715.1
2017-Jul-24 22:30N 60°49' E 004°28'918.6
2017-Jul-24 22:00N 60°39' E 004°27'815.8
2017-Jul-24 21:30N 60°31' E 004°27'917.4
2017-Jul-24 21:00N 60°23' E 004°26'3716.9
2017-Jul-24 18:48N 59°46' E 004°37'517.1
2017-Jul-24 18:30N 59°41' E 004°42'817.3
2017-Jul-24 18:01N 59°34' E 004°49'816.1
2017-Jul-24 17:30N 59°26' E 004°53'817.0
2017-Jul-24 17:00N 59°18' E 004°59'917.1
2017-Jul-24 16:30N 59°10' E 005°05'815.7
2017-Jul-24 16:00N 59°07' E 005°19'15 5.0
2017-Jul-24 12:58N 58°58' E 005°44'0 0.0
2017-Jul-24 12:28N 58°58' E 005°44'0 0.0
2017-Jul-24 11:58N 58°58' E 005°44'0 0.0
2017-Jul-24 11:28N 58°58' E 005°44'0 0.0
2017-Jul-24 10:58N 58°58' E 005°44'0 0.0
2017-Jul-24 10:28N 58°58' E 005°44'0 0.0
2017-Jul-24 09:58N 58°58' E 005°44'0 0.0
2017-Jul-24 09:28N 58°58' E 005°44'0 0.0
2017-Jul-24 08:58N 58°58' E 005°44'0 0.0
2017-Jul-24 08:28N 58°58' E 005°44'0 0.0
2017-Jul-24 07:58N 58°58' E 005°44'0 0.0
2017-Jul-24 07:28N 58°58' E 005°44'0 0.0
2017-Jul-24 06:58N 58°58' E 005°44'0 0.0
2017-Jul-24 06:28N 58°58' E 005°44'0 0.0
2017-Jul-24 05:58N 58°58' E 005°44'0 0.4
2017-Jul-24 05:30N 58°59' E 005°44'2 4.8
2017-Jul-24 05:00N 59°00' E 005°41'5 9.1
2017-Jul-24 04:30N 59°02' E 005°32'815.8
2017-Jul-24 04:00N 58°54' E 005°32'612.1
2017-Jul-24 03:30N 58°49' E 005°26'816.8
2017-Jul-24 03:00N 58°42' E 005°18'917.4
2017-Jul-24 02:30N 58°34' E 005°11'917.4
2017-Jul-24 02:01N 58°25' E 005°10'8454.7
2017-Jul-24 02:00N 58°18' E 005°06'1 3.1 080 / 261011.710.8 16.612.115.0
2017-Jul-24 01:30N 58°17' E 005°07'13818.4
2017-Jul-23 18:00N 56°00' E 004°24'7518.7 270 / 61008.610.8 16.014.316.0
2017-Jul-23 14:00N 54°48' E 003°48'15617.3 250 / 101009.210.8 17.313.417.0
2017-Jul-23 05:00N 52°18' E 002°36'2918.0 230 / 191009.710.8 16.012.418.0
2017-Jul-23 03:22N 51°49' E 002°37'1020.5
2017-Jul-23 02:52N 51°41' E 002°26'720.6
2017-Jul-23 02:30N 51°35' E 002°19'1020.9
2017-Jul-23 02:01N 51°26' E 002°10'1020.7
2017-Jul-23 01:30N 51°16' E 002°06'1121.3
2017-Jul-23 01:00N 51°10' E 001°52'1122.0
2017-Jul-23 00:30N 51°02' E 001°39'1122.7
2017-Jul-23 00:00N 50°54' E 001°28'1222.1
2017-Jul-22 23:29N 50°43' E 001°21'4019.2
2017-Jul-22 21:24N 50°25' E 000°24'820.8
2017-Jul-22 21:00N 50°24' E 000°11'1020.6
2017-Jul-22 20:30N 50°23' W 000°05'1020.9
2017-Jul-22 20:00N 50°25' W 000°21'1020.0
2017-Jul-22 19:30N 50°30' W 000°35'1019.7
2017-Jul-22 19:00N 50°36' W 000°47'918.3
2017-Jul-22 18:30N 50°42' W 000°58'713.6
2017-Jul-22 18:00N 50°45' W 001°07'714.9
2017-Jul-22 17:30N 50°48' W 001°18'5 9.6
2017-Jul-22 17:01N 50°52' W 001°22'3 6.5
2017-Jul-22 16:30N 50°54' W 001°26'0 0.0
2017-Jul-22 15:49N 50°54' W 001°26'0 0.0
2017-Jul-22 15:28N 50°54' W 001°26'0 0.0
2017-Jul-22 14:58N 50°54' W 001°26'0 0.0
2017-Jul-22 13:58N 50°54' W 001°26'0 0.0
2017-Jul-22 13:28N 50°54' W 001°26'0 0.0
2017-Jul-22 12:55N 50°54' W 001°26'0 0.0
2017-Jul-22 12:28N 50°54' W 001°26'0 0.0
2017-Jul-22 11:58N 50°54' W 001°26'0 0.0
2017-Jul-22 11:28N 50°54' W 001°26'0 0.0
2017-Jul-22 10:58N 50°54' W 001°26'0 0.0
2017-Jul-22 10:22N 50°54' W 001°26'0 0.0
2017-Jul-22 09:55N 50°54' W 001°26'0 0.0
2017-Jul-22 09:28N 50°54' W 001°26'0 0.0
2017-Jul-22 08:55N 50°54' W 001°26'0 0.0
2017-Jul-22 08:25N 50°54' W 001°26'0 0.0
2017-Jul-22 07:58N 50°54' W 001°26'0 0.0
2017-Jul-22 07:28N 50°54' W 001°26'0 0.0
2017-Jul-22 06:58N 50°54' W 001°26'0 0.0
2017-Jul-22 06:28N 50°54' W 001°26'0 0.0
2017-Jul-22 05:58N 50°54' W 001°26'0 0.0
2017-Jul-22 05:28N 50°54' W 001°26'0 0.5
2017-Jul-22 05:00N 50°54' W 001°26'2 3.3
2017-Jul-22 04:30N 50°53' W 001°24'5 9.9
2017-Jul-22 04:00N 50°50' W 001°19'4 8.3
2017-Jul-22 03:31N 50°46' W 001°15'917.2
2017-Jul-22 03:00N 50°44' W 001°02'5 9.7
2017-Jul-22 02:30N 50°39' W 000°58'510.1
2017-Jul-22 02:00N 50°35' W 001°02'611.0
2017-Jul-22 01:30N 50°31' W 001°08'1611.0
2017-Jul-22 00:03N 50°26' W 001°32'110.7
2017-Jul-21 23:59N 50°26' W 001°33'510.9
2017-Jul-21 23:29N 50°24' W 001°41'511.0
2017-Jul-21 23:00N 50°22' W 001°49'511.0
2017-Jul-21 22:30N 50°21' W 001°57'713.0
2017-Jul-21 22:00N 50°19' W 002°07'713.8
2017-Jul-21 21:29N 50°17' W 002°18'714.5
2017-Jul-21 21:00N 50°16' W 002°28'714.8
2017-Jul-21 20:30N 50°15' W 002°40'714.9
2017-Jul-21 20:00N 50°13' W 002°51'815.3
2017-Jul-21 19:30N 50°10' W 003°02'815.4
2017-Jul-21 19:00N 50°06' W 003°12'815.4
2017-Jul-21 18:30N 50°01' W 003°21'815.5
2017-Jul-21 18:00N 49°56' W 003°31'815.3
2017-Jul-21 17:30N 49°50' W 003°38'815.2
2017-Jul-21 17:00N 49°44' W 003°46'714.9
2017-Jul-21 16:30N 49°38' W 003°51'814.9
2017-Jul-21 15:59N 49°32' W 003°58'815.5
2017-Jul-21 15:28N 49°26' W 004°07'5515.7
2017-Jul-21 11:58N 48°45' W 005°03'2019.8
2017-Jul-21 10:58N 48°30' W 005°23'2119.0
2017-Jul-21 09:53N 48°13' W 005°40'15319.4
2017-Jul-21 02:00N 46°00' W 007°30'40117.2 230 / 221013.210.8 19.013.622.0
2017-Jul-20 02:41N 39°32' W 009°51'817.6
2017-Jul-20 02:15N 39°25' W 009°51'417.7
2017-Jul-20 02:00N 39°20' W 009°51'9622.1
2017-Jul-20 02:00N 39°12' W 009°48'3 5.8 350 / 241017.610.8 19.013.822.0
2017-Jul-20 01:30N 39°11' W 009°52'918.0
2017-Jul-20 01:01N 39°02' W 009°52'917.9
2017-Jul-20 00:30N 38°53' W 009°51'917.7
2017-Jul-20 00:00N 38°45' W 009°50'918.0
2017-Jul-19 23:30N 38°36' W 009°48'918.1
2017-Jul-19 23:01N 38°27' W 009°46'917.3
2017-Jul-19 22:31N 38°19' W 009°43'918.1
2017-Jul-19 22:00N 38°10' W 009°40'918.2
2017-Jul-19 21:31N 38°01' W 009°36'917.9
2017-Jul-19 21:01N 37°53' W 009°33'918.2
2017-Jul-19 20:31N 37°44' W 009°32'918.1
2017-Jul-19 20:01N 37°35' W 009°30'917.8
2017-Jul-19 19:30N 37°26' W 009°27'917.9
2017-Jul-19 19:00N 37°17' W 009°24'917.6
2017-Jul-19 18:30N 37°09' W 009°22'4315.8
2017-Jul-19 15:48N 36°40' W 008°43'517.4
2017-Jul-19 15:30N 36°38' W 008°37'3724.6
2017-Jul-19 14:00N 36°24' W 007°54'11216.5 280 / 201016.010.8 21.017.822.0
2017-Jul-19 07:14N 35°58' W 005°39'9117.4
2017-Jul-19 02:00N 36°12' W 003°48'7116.6 1012.810.8
2017-Jul-18 21:43N 36°26' W 002°22'1017.6
2017-Jul-18 21:10N 36°27' W 002°10'1317.9
2017-Jul-18 20:26N 36°33' W 001°55'1418.0
2017-Jul-18 19:38N 36°44' W 001°44'218.1
2017-Jul-18 19:30N 36°46' W 001°43'2818.2
2017-Jul-18 18:00N 37°08' W 001°22'1218.1
2017-Jul-18 17:20N 37°18' W 001°14'  
Track history (hours):
 
Tides and Currents Weather Stations Pressure Air Temp Water Temp Dewpoint Dewpoint Depression Visibility Wind Speed Wind Dir Waves Ship Positions

Azure

Last reported at 2017-Jul-28 06:00 UTC. Time now 2017-Jul-28 08:37 UTC.
Position N 56°12' E 003°36'.

Length 289 m; draft 8.6 m.

Type: Passenger vessel. MMSI: 310610000.

Wind from 190 at 8 knots

Barometer 1000.2 mb
Air temperature 15.5 ° C
Visibility: greater than 10.8 NM
Dewpoint 10.8 ° C
Water temperature 16.0 ° C

Date/timePositionNaut miles runAvg speedWind from/ knotsBaromVisibWave heightAir tempDewpointWater temp
2017-Jul-28 06:00N 56°12' E 003°36'8421.1 190 / 81000.210.8 15.510.816.0
2017-Jul-28 02:00N 57°36' E 003°48'18120.6 200 / 111000.310.8 14.610.616.0
2017-Jul-27 17:13N 60°36' E 004°22'420.7
2017-Jul-27 17:00N 60°40' E 004°28'917.4
2017-Jul-27 16:30N 60°44' E 004°42'712.9
2017-Jul-27 16:00N 60°40' E 004°51'1019.4
2017-Jul-27 15:30N 60°31' E 004°58'816.1
2017-Jul-27 15:00N 60°24' E 005°07'6 5.6
2017-Jul-27 14:00N 60°24' E 005°19'0 0.0
2017-Jul-27 13:30N 60°24' E 005°19'0 0.0
2017-Jul-27 13:00N 60°24' E 005°19'0 0.0
2017-Jul-27 12:30N 60°24' E 005°19'0 0.0
2017-Jul-27 12:00N 60°24' E 005°19'0 0.0
2017-Jul-27 11:18N 60°24' E 005°19'0 0.0
2017-Jul-27 11:00N 60°24' E 005°19'0 0.0
2017-Jul-27 10:30N 60°24' E 005°19'0 0.0
2017-Jul-27 10:00N 60°24' E 005°19'0 0.0
2017-Jul-27 09:30N 60°24' E 005°19'0 0.0
2017-Jul-27 09:00N 60°24' E 005°19'0 0.0
2017-Jul-27 08:30N 60°24' E 005°19'0 0.0
2017-Jul-27 08:00N 60°24' E 005°19'0 0.0
2017-Jul-27 07:24N 60°24' E 005°19'0 0.0
2017-Jul-27 07:00N 60°24' E 005°19'0 0.0
2017-Jul-27 06:30N 60°24' E 005°19'0 0.0
2017-Jul-27 06:00N 60°24' E 005°19'0 0.0
2017-Jul-27 05:30N 60°24' E 005°19'0 0.0
2017-Jul-27 05:00N 60°24' E 005°19'0 0.3
2017-Jul-27 04:30N 60°24' E 005°19'3 6.4
2017-Jul-27 04:00N 60°24' E 005°13'510.5
2017-Jul-27 03:30N 60°25' E 005°03'714.3
2017-Jul-27 03:00N 60°32' E 004°56'714.5
2017-Jul-27 02:30N 60°39' E 004°51'612.3
2017-Jul-27 01:59N 60°44' E 004°44'714.4
2017-Jul-27 01:30N 60°47' E 004°31'713.4
2017-Jul-27 01:00N 60°52' E 004°23'714.1
2017-Jul-27 00:31N 60°58' E 004°16'4713.5
2017-Jul-26 21:02N 61°45' E 004°23'116.5
2017-Jul-26 21:00N 61°45' E 004°24'816.5
2017-Jul-26 20:30N 61°52' E 004°33'815.8
2017-Jul-26 20:00N 61°58' E 004°45'815.2
2017-Jul-26 19:30N 61°56' E 004°60'714.6
2017-Jul-26 19:00N 61°54' E 005°15'816.4
2017-Jul-26 18:30N 61°55' E 005°32'7 0.4
2017-Jul-26 03:08N 61°52' E 005°45'213.2
2017-Jul-26 02:59N 61°53' E 005°43'714.3
2017-Jul-26 02:30N 61°55' E 005°28'714.3
2017-Jul-26 02:00N 61°54' E 005°13'713.1
2017-Jul-26 01:29N 61°56' E 004°60'713.6
2017-Jul-26 01:00N 61°58' E 004°47'816.9
2017-Jul-26 00:30N 61°56' E 004°29'3715.4
2017-Jul-25 22:05N 61°19' E 004°18'332.0
2017-Jul-25 22:00N 61°17' E 004°22'815.3
2017-Jul-25 21:29N 61°14' E 004°37'918.5
2017-Jul-25 21:00N 61°13' E 004°56'714.0
2017-Jul-25 20:30N 61°09' E 005°07'917.4
2017-Jul-25 20:00N 61°04' E 005°22'816.6
2017-Jul-25 19:29N 61°07' E 005°38'917.9
2017-Jul-25 18:59N 61°08' E 005°56'918.2
2017-Jul-25 18:30N 61°07' E 006°14'917.2
2017-Jul-25 18:00N 61°07' E 006°32'713.7
2017-Jul-25 17:30N 61°10' E 006°45'816.6
2017-Jul-25 17:00N 61°05' E 006°59'816.2
2017-Jul-25 16:30N 60°58' E 007°06'510.0
2017-Jul-25 16:00N 60°53' E 007°09'2 3.1
2017-Jul-25 15:30N 60°52' E 007°07'0 0.0
2017-Jul-25 14:58N 60°52' E 007°07'0 0.0
2017-Jul-25 13:58N 60°52' E 007°07'0 0.0
2017-Jul-25 13:28N 60°52' E 007°07'0 0.0
2017-Jul-25 12:58N 60°52' E 007°07'0 0.0
2017-Jul-25 12:28N 60°52' E 007°07'0 0.0
2017-Jul-25 11:58N 60°52' E 007°07'0 0.0
2017-Jul-25 11:29N 60°52' E 007°07'0 0.0
2017-Jul-25 10:59N 60°52' E 007°07'0 0.0
2017-Jul-25 10:29N 60°52' E 007°07'0 0.0
2017-Jul-25 09:59N 60°52' E 007°07'0 0.0
2017-Jul-25 09:29N 60°52' E 007°07'0 0.0
2017-Jul-25 08:59N 60°52' E 007°07'0 0.0
2017-Jul-25 08:28N 60°52' E 007°07'0 0.0
2017-Jul-25 07:58N 60°52' E 007°07'0 0.0
2017-Jul-25 07:28N 60°52' E 007°07'0 0.0
2017-Jul-25 06:58N 60°52' E 007°07'0 0.0
2017-Jul-25 06:28N 60°52' E 007°07'0 0.0
2017-Jul-25 05:58N 60°52' E 007°07'1 1.3
2017-Jul-25 05:29N 60°52' E 007°08'5 9.1
2017-Jul-25 05:00N 60°57' E 007°09'713.4
2017-Jul-25 04:30N 61°03' E 007°02'713.4
2017-Jul-25 04:00N 61°08' E 006°54'713.5
2017-Jul-25 03:30N 61°11' E 006°41'713.3
2017-Jul-25 03:00N 61°07' E 006°30'714.8
2017-Jul-25 02:30N 61°07' E 006°15'815.4
2017-Jul-25 02:00N 61°08' E 005°59'815.8
2017-Jul-25 01:30N 61°07' E 005°43'816.1
2017-Jul-25 01:00N 61°04' E 005°28'714.3
2017-Jul-25 00:30N 61°06' E 005°13'713.3
2017-Jul-25 00:00N 61°04' E 004°60'815.2
2017-Jul-24 23:30N 60°59' E 004°47'714.5
2017-Jul-24 23:00N 60°53' E 004°41'715.1
2017-Jul-24 22:30N 60°49' E 004°28'918.6
2017-Jul-24 22:00N 60°39' E 004°27'815.8
2017-Jul-24 21:30N 60°31' E 004°27'917.4
2017-Jul-24 21:00N 60°23' E 004°26'3716.9
2017-Jul-24 18:48N 59°46' E 004°37'517.1
2017-Jul-24 18:30N 59°41' E 004°42'817.3
2017-Jul-24 18:01N 59°34' E 004°49'816.1
2017-Jul-24 17:30N 59°26' E 004°53'817.0
2017-Jul-24 17:00N 59°18' E 004°59'917.1
2017-Jul-24 16:30N 59°10' E 005°05'815.7
2017-Jul-24 16:00N 59°07' E 005°19'15 5.0
2017-Jul-24 12:58N 58°58' E 005°44'0 0.0
2017-Jul-24 12:28N 58°58' E 005°44'0 0.0
2017-Jul-24 11:58N 58°58' E 005°44'0 0.0
2017-Jul-24 11:28N 58°58' E 005°44'0 0.0
2017-Jul-24 10:58N 58°58' E 005°44'0 0.0
2017-Jul-24 10:28N 58°58' E 005°44'0 0.0
2017-Jul-24 09:58N 58°58' E 005°44'0 0.0
2017-Jul-24 09:28N 58°58' E 005°44'0 0.0
2017-Jul-24 08:58N 58°58' E 005°44'0 0.0
2017-Jul-24 08:28N 58°58' E 005°44'0 0.0
2017-Jul-24 07:58N 58°58' E 005°44'0 0.0
2017-Jul-24 07:28N 58°58' E 005°44'0 0.0
2017-Jul-24 06:58N 58°58' E 005°44'0 0.0
2017-Jul-24 06:28N 58°58' E 005°44'0 0.0
2017-Jul-24 05:58N 58°58' E 005°44'0 0.4
2017-Jul-24 05:30N 58°59' E 005°44'2 4.8
2017-Jul-24 05:00N 59°00' E 005°41'5 9.1
2017-Jul-24 04:30N 59°02' E 005°32'815.8
2017-Jul-24 04:00N 58°54' E 005°32'612.1
2017-Jul-24 03:30N 58°49' E 005°26'816.8
2017-Jul-24 03:00N 58°42' E 005°18'917.4
2017-Jul-24 02:30N 58°34' E 005°11'917.4
2017-Jul-24 02:01N 58°25' E 005°10'8454.7
2017-Jul-24 02:00N 58°18' E 005°06'1 3.1 080 / 261011.710.8 16.612.115.0
2017-Jul-24 01:30N 58°17' E 005°07'13818.4
2017-Jul-23 18:00N 56°00' E 004°24'7518.7 270 / 61008.610.8 16.014.316.0
2017-Jul-23 14:00N 54°48' E 003°48'15617.3 250 / 101009.210.8 17.313.417.0
2017-Jul-23 05:00N 52°18' E 002°36'2918.0 230 / 191009.710.8 16.012.418.0
2017-Jul-23 03:22N 51°49' E 002°37'1020.5
2017-Jul-23 02:52N 51°41' E 002°26'720.6
2017-Jul-23 02:30N 51°35' E 002°19'1020.9
2017-Jul-23 02:01N 51°26' E 002°10'1020.7
2017-Jul-23 01:30N 51°16' E 002°06'1121.3
2017-Jul-23 01:00N 51°10' E 001°52'1122.0
2017-Jul-23 00:30N 51°02' E 001°39'1122.7
2017-Jul-23 00:00N 50°54' E 001°28'1222.1
2017-Jul-22 23:29N 50°43' E 001°21'4019.2
2017-Jul-22 21:24N 50°25' E 000°24'820.8
2017-Jul-22 21:00N 50°24' E 000°11'1020.6
2017-Jul-22 20:30N 50°23' W 000°05'1020.9
2017-Jul-22 20:00N 50°25' W 000°21'1020.0
2017-Jul-22 19:30N 50°30' W 000°35'1019.7
2017-Jul-22 19:00N 50°36' W 000°47'918.3
2017-Jul-22 18:30N 50°42' W 000°58'713.6
2017-Jul-22 18:00N 50°45' W 001°07'714.9
2017-Jul-22 17:30N 50°48' W 001°18'5 9.6
2017-Jul-22 17:01N 50°52' W 001°22'3 6.5
2017-Jul-22 16:30N 50°54' W 001°26'0 0.0
2017-Jul-22 15:49N 50°54' W 001°26'0 0.0
2017-Jul-22 15:28N 50°54' W 001°26'0 0.0
2017-Jul-22 14:58N 50°54' W 001°26'0 0.0
2017-Jul-22 13:58N 50°54' W 001°26'0 0.0
2017-Jul-22 13:28N 50°54' W 001°26'0 0.0
2017-Jul-22 12:55N 50°54' W 001°26'0 0.0
2017-Jul-22 12:28N 50°54' W 001°26'0 0.0
2017-Jul-22 11:58N 50°54' W 001°26'0 0.0
2017-Jul-22 11:28N 50°54' W 001°26'0 0.0
2017-Jul-22 10:58N 50°54' W 001°26'0 0.0
2017-Jul-22 10:22N 50°54' W 001°26'0 0.0
2017-Jul-22 09:55N 50°54' W 001°26'0 0.0
2017-Jul-22 09:28N 50°54' W 001°26'0 0.0
2017-Jul-22 08:55N 50°54' W 001°26'0 0.0
2017-Jul-22 08:25N 50°54' W 001°26'0 0.0
2017-Jul-22 07:58N 50°54' W 001°26'0 0.0
2017-Jul-22 07:28N 50°54' W 001°26'0 0.0
2017-Jul-22 06:58N 50°54' W 001°26'0 0.0
2017-Jul-22 06:28N 50°54' W 001°26'0 0.0
2017-Jul-22 05:58N 50°54' W 001°26'0 0.0
2017-Jul-22 05:28N 50°54' W 001°26'0 0.5
2017-Jul-22 05:00N 50°54' W 001°26'2 3.3
2017-Jul-22 04:30N 50°53' W 001°24'5 9.9
2017-Jul-22 04:00N 50°50' W 001°19'4 8.3
2017-Jul-22 03:31N 50°46' W 001°15'917.2
2017-Jul-22 03:00N 50°44' W 001°02'5 9.7
2017-Jul-22 02:30N 50°39' W 000°58'510.1
2017-Jul-22 02:00N 50°35' W 001°02'611.0
2017-Jul-22 01:30N 50°31' W 001°08'1611.0
2017-Jul-22 00:03N 50°26' W 001°32'110.7
2017-Jul-21 23:59N 50°26' W 001°33'510.9
2017-Jul-21 23:29N 50°24' W 001°41'511.0
2017-Jul-21 23:00N 50°22' W 001°49'511.0
2017-Jul-21 22:30N 50°21' W 001°57'713.0
2017-Jul-21 22:00N 50°19' W 002°07'713.8
2017-Jul-21 21:29N 50°17' W 002°18'714.5
2017-Jul-21 21:00N 50°16' W 002°28'714.8
2017-Jul-21 20:30N 50°15' W 002°40'714.9
2017-Jul-21 20:00N 50°13' W 002°51'815.3
2017-Jul-21 19:30N 50°10' W 003°02'815.4
2017-Jul-21 19:00N 50°06' W 003°12'815.4
2017-Jul-21 18:30N 50°01' W 003°21'815.5
2017-Jul-21 18:00N 49°56' W 003°31'815.3
2017-Jul-21 17:30N 49°50' W 003°38'815.2
2017-Jul-21 17:00N 49°44' W 003°46'714.9
2017-Jul-21 16:30N 49°38' W 003°51'814.9
2017-Jul-21 15:59N 49°32' W 003°58'815.5
2017-Jul-21 15:28N 49°26' W 004°07'5515.7
2017-Jul-21 11:58N 48°45' W 005°03'2019.8
2017-Jul-21 10:58N 48°30' W 005°23'2119.0
2017-Jul-21 09:53N 48°13' W 005°40'15319.4
2017-Jul-21 02:00N 46°00' W 007°30'40117.2 230 / 221013.210.8 19.013.622.0
2017-Jul-20 02:41N 39°32' W 009°51'817.6
2017-Jul-20 02:15N 39°25' W 009°51'417.7
2017-Jul-20 02:00N 39°20' W 009°51'9622.1
2017-Jul-20 02:00N 39°12' W 009°48'3 5.8 350 / 241017.610.8 19.013.822.0
2017-Jul-20 01:30N 39°11' W 009°52'918.0
2017-Jul-20 01:01N 39°02' W 009°52'917.9
2017-Jul-20 00:30N 38°53' W 009°51'917.7
2017-Jul-20 00:00N 38°45' W 009°50'918.0
2017-Jul-19 23:30N 38°36' W 009°48'918.1
2017-Jul-19 23:01N 38°27' W 009°46'917.3
2017-Jul-19 22:31N 38°19' W 009°43'918.1
2017-Jul-19 22:00N 38°10' W 009°40'918.2
2017-Jul-19 21:31N 38°01' W 009°36'917.9
2017-Jul-19 21:01N 37°53' W 009°33'918.2
2017-Jul-19 20:31N 37°44' W 009°32'918.1
2017-Jul-19 20:01N 37°35' W 009°30'917.8
2017-Jul-19 19:30N 37°26' W 009°27'917.9
2017-Jul-19 19:00N 37°17' W 009°24'917.6
2017-Jul-19 18:30N 37°09' W 009°22'4315.8
2017-Jul-19 15:48N 36°40' W 008°43'517.4
2017-Jul-19 15:30N 36°38' W 008°37'3724.6
2017-Jul-19 14:00N 36°24' W 007°54'11216.5 280 / 201016.010.8 21.017.822.0
2017-Jul-19 07:14N 35°58' W 005°39'9117.4
2017-Jul-19 02:00N 36°12' W 003°48'7116.6 1012.810.8
2017-Jul-18 21:43N 36°26' W 002°22'1017.6
2017-Jul-18 21:10N 36°27' W 002°10'1317.9
2017-Jul-18 20:26N 36°33' W 001°55'1418.0
2017-Jul-18 19:38N 36°44' W 001°44'218.1
2017-Jul-18 19:30N 36°46' W 001°43'2818.2
2017-Jul-18 18:00N 37°08' W 001°22'1218.1
2017-Jul-18 17:20N 37°18' W 001°14'  

Dump ship's entire track history